sensor_id;sensor_type;location;lat;lon;timestamp;P1;durP1;ratioP1;P2;durP2;ratioP2
46607;SDS011;32330;51.936;7.184;2022-12-29T00:01:26;2.33;;;1.75;;
46607;SDS011;32330;51.936;7.184;2022-12-29T00:03:53;2.58;;;1.75;;
46607;SDS011;32330;51.936;7.184;2022-12-29T00:06:21;4.30;;;1.65;;
46607;SDS011;32330;51.936;7.184;2022-12-29T00:08:48;2.13;;;1.60;;
46607;SDS011;32330;51.936;7.184;2022-12-29T00:11:16;2.78;;;1.33;;
46607;SDS011;32330;51.936;7.184;2022-12-29T00:13:44;2.70;;;1.77;;
46607;SDS011;32330;51.936;7.184;2022-12-29T00:16:29;2.42;;;1.67;;
46607;SDS011;32330;51.936;7.184;2022-12-29T00:18:57;2.28;;;1.60;;
46607;SDS011;32330;51.936;7.184;2022-12-29T00:21:25;3.22;;;1.35;;
46607;SDS011;32330;51.936;7.184;2022-12-29T00:24:12;1.80;;;1.30;;
46607;SDS011;32330;51.936;7.184;2022-12-29T00:26:58;2.00;;;1.10;;
46607;SDS011;32330;51.936;7.184;2022-12-29T00:29:54;2.65;;;1.60;;
46607;SDS011;32330;51.936;7.184;2022-12-29T00:32:38;3.05;;;1.60;;
46607;SDS011;32330;51.936;7.184;2022-12-29T00:35:23;3.38;;;1.70;;
46607;SDS011;32330;51.936;7.184;2022-12-29T00:37:55;2.72;;;1.67;;
46607;SDS011;32330;51.936;7.184;2022-12-29T00:40:44;2.58;;;1.40;;
46607;SDS011;32330;51.936;7.184;2022-12-29T00:43:28;2.60;;;1.80;;
46607;SDS011;32330;51.936;7.184;2022-12-29T00:46:13;3.03;;;1.65;;
46607;SDS011;32330;51.936;7.184;2022-12-29T00:48:40;5.85;;;1.73;;
46607;SDS011;32330;51.936;7.184;2022-12-29T00:51:24;2.22;;;1.63;;
46607;SDS011;32330;51.936;7.184;2022-12-29T00:53:52;2.05;;;1.45;;
46607;SDS011;32330;51.936;7.184;2022-12-29T00:56:19;3.05;;;2.10;;
46607;SDS011;32330;51.936;7.184;2022-12-29T00:58:46;2.72;;;1.60;;
46607;SDS011;32330;51.936;7.184;2022-12-29T01:01:13;2.95;;;1.73;;
46607;SDS011;32330;51.936;7.184;2022-12-29T01:03:40;5.00;;;1.80;;
46607;SDS011;32330;51.936;7.184;2022-12-29T01:06:07;3.28;;;2.25;;
46607;SDS011;32330;51.936;7.184;2022-12-29T01:08:36;3.20;;;2.40;;
46607;SDS011;32330;51.936;7.184;2022-12-29T01:11:05;3.78;;;2.08;;
46607;SDS011;32330;51.936;7.184;2022-12-29T01:13:32;3.17;;;2.17;;
46607;SDS011;32330;51.936;7.184;2022-12-29T01:16:00;3.88;;;2.60;;
46607;SDS011;32330;51.936;7.184;2022-12-29T01:18:27;3.30;;;2.53;;
46607;SDS011;32330;51.936;7.184;2022-12-29T01:20:58;3.40;;;2.53;;
46607;SDS011;32330;51.936;7.184;2022-12-29T01:25:53;6.97;;;2.85;;
46607;SDS011;32330;51.936;7.184;2022-12-29T01:28:21;5.88;;;3.20;;
46607;SDS011;32330;51.936;7.184;2022-12-29T01:30:48;4.05;;;3.10;;
46607;SDS011;32330;51.936;7.184;2022-12-29T01:33:15;3.95;;;2.67;;
46607;SDS011;32330;51.936;7.184;2022-12-29T01:35:42;3.33;;;2.50;;
46607;SDS011;32330;51.936;7.184;2022-12-29T01:38:09;3.28;;;2.75;;
46607;SDS011;32330;51.936;7.184;2022-12-29T01:40:42;3.05;;;2.58;;
46607;SDS011;32330;51.936;7.184;2022-12-29T01:43:10;2.83;;;2.08;;
46607;SDS011;32330;51.936;7.184;2022-12-29T01:45:40;2.97;;;2.40;;
46607;SDS011;32330;51.936;7.184;2022-12-29T01:48:10;3.17;;;2.30;;
46607;SDS011;32330;51.936;7.184;2022-12-29T01:50:40;4.07;;;2.05;;
46607;SDS011;32330;51.936;7.184;2022-12-29T01:53:13;2.00;;;1.80;;
46607;SDS011;32330;51.936;7.184;2022-12-29T01:55:44;2.53;;;2.08;;
46607;SDS011;32330;51.936;7.184;2022-12-29T01:58:14;3.85;;;2.63;;
46607;SDS011;32330;51.936;7.184;2022-12-29T02:00:45;2.47;;;2.28;;
46607;SDS011;32330;51.936;7.184;2022-12-29T02:03:13;3.60;;;2.30;;
46607;SDS011;32330;51.936;7.184;2022-12-29T02:05:44;2.35;;;2.13;;
46607;SDS011;32330;51.936;7.184;2022-12-29T02:08:16;2.42;;;1.58;;
46607;SDS011;32330;51.936;7.184;2022-12-29T02:10:43;2.58;;;1.60;;
46607;SDS011;32330;51.936;7.184;2022-12-29T02:13:11;2.35;;;1.40;;
46607;SDS011;32330;51.936;7.184;2022-12-29T02:15:43;3.25;;;1.30;;
46607;SDS011;32330;51.936;7.184;2022-12-29T02:18:22;1.80;;;1.05;;
46607;SDS011;32330;51.936;7.184;2022-12-29T02:27:04;2.03;;;1.10;;
46607;SDS011;32330;51.936;7.184;2022-12-29T02:29:58;2.50;;;1.10;;
46607;SDS011;32330;51.936;7.184;2022-12-29T02:32:37;2.53;;;0.97;;
46607;SDS011;32330;51.936;7.184;2022-12-29T02:35:14;3.40;;;0.95;;
46607;SDS011;32330;51.936;7.184;2022-12-29T02:37:51;1.35;;;0.90;;
46607;SDS011;32330;51.936;7.184;2022-12-29T02:40:27;1.95;;;1.00;;
46607;SDS011;32330;51.936;7.184;2022-12-29T02:43:03;1.60;;;1.00;;
46607;SDS011;32330;51.936;7.184;2022-12-29T02:45:41;1.90;;;1.10;;
46607;SDS011;32330;51.936;7.184;2022-12-29T02:48:16;1.45;;;0.75;;
46607;SDS011;32330;51.936;7.184;2022-12-29T02:50:51;1.08;;;0.65;;
46607;SDS011;32330;51.936;7.184;2022-12-29T02:53:23;0.95;;;0.60;;
46607;SDS011;32330;51.936;7.184;2022-12-29T02:56:06;1.77;;;0.73;;
46607;SDS011;32330;51.936;7.184;2022-12-29T02:58:33;2.42;;;0.85;;
46607;SDS011;32330;51.936;7.184;2022-12-29T03:01:04;1.77;;;0.70;;
46607;SDS011;32330;51.936;7.184;2022-12-29T03:03:51;1.73;;;1.05;;
46607;SDS011;32330;51.936;7.184;2022-12-29T03:06:30;1.42;;;0.75;;
46607;SDS011;32330;51.936;7.184;2022-12-29T03:09:03;2.70;;;0.70;;
46607;SDS011;32330;51.936;7.184;2022-12-29T03:11:42;2.80;;;0.70;;
46607;SDS011;32330;51.936;7.184;2022-12-29T03:14:39;1.88;;;0.70;;
46607;SDS011;32330;51.936;7.184;2022-12-29T03:17:39;2.53;;;0.80;;
46607;SDS011;32330;51.936;7.184;2022-12-29T03:20:16;2.10;;;0.73;;
46607;SDS011;32330;51.936;7.184;2022-12-29T03:22:50;1.45;;;0.77;;
46607;SDS011;32330;51.936;7.184;2022-12-29T03:25:23;3.53;;;1.38;;
46607;SDS011;32330;51.936;7.184;2022-12-29T03:27:55;1.40;;;0.60;;
46607;SDS011;32330;51.936;7.184;2022-12-29T03:30:26;2.60;;;0.77;;
46607;SDS011;32330;51.936;7.184;2022-12-29T03:32:56;2.47;;;0.90;;
46607;SDS011;32330;51.936;7.184;2022-12-29T03:35:31;1.98;;;0.98;;
46607;SDS011;32330;51.936;7.184;2022-12-29T03:38:05;2.88;;;0.85;;
46607;SDS011;32330;51.936;7.184;2022-12-29T03:40:37;5.18;;;1.10;;
46607;SDS011;32330;51.936;7.184;2022-12-29T03:43:06;2.28;;;0.98;;
46607;SDS011;32330;51.936;7.184;2022-12-29T03:45:35;3.42;;;0.93;;
46607;SDS011;32330;51.936;7.184;2022-12-29T03:48:02;2.17;;;1.10;;
46607;SDS011;32330;51.936;7.184;2022-12-29T03:50:32;3.17;;;1.10;;
46607;SDS011;32330;51.936;7.184;2022-12-29T03:52:59;3.17;;;0.70;;
46607;SDS011;32330;51.936;7.184;2022-12-29T03:55:26;1.42;;;0.70;;
46607;SDS011;32330;51.936;7.184;2022-12-29T03:57:53;3.08;;;0.60;;
46607;SDS011;32330;51.936;7.184;2022-12-29T04:00:31;1.45;;;0.73;;
46607;SDS011;32330;51.936;7.184;2022-12-29T04:02:58;3.30;;;0.80;;
46607;SDS011;32330;51.936;7.184;2022-12-29T04:05:25;1.60;;;0.50;;
46607;SDS011;32330;51.936;7.184;2022-12-29T04:07:55;2.42;;;0.70;;
46607;SDS011;32330;51.936;7.184;2022-12-29T04:10:22;1.52;;;0.57;;
46607;SDS011;32330;51.936;7.184;2022-12-29T04:12:53;0.93;;;0.40;;
46607;SDS011;32330;51.936;7.184;2022-12-29T04:15:21;3.65;;;0.60;;
46607;SDS011;32330;51.936;7.184;2022-12-29T04:17:49;2.00;;;0.63;;
46607;SDS011;32330;51.936;7.184;2022-12-29T04:20:16;2.95;;;0.68;;
46607;SDS011;32330;51.936;7.184;2022-12-29T04:23:05;2.28;;;0.75;;
46607;SDS011;32330;51.936;7.184;2022-12-29T04:25:34;2.53;;;1.02;;
46607;SDS011;32330;51.936;7.184;2022-12-29T04:28:02;0.90;;;0.50;;
46607;SDS011;32330;51.936;7.184;2022-12-29T04:30:41;1.70;;;0.50;;
46607;SDS011;32330;51.936;7.184;2022-12-29T04:33:16;2.20;;;0.50;;
46607;SDS011;32330;51.936;7.184;2022-12-29T04:35:44;2.38;;;0.55;;
46607;SDS011;32330;51.936;7.184;2022-12-29T04:38:13;1.85;;;0.82;;
46607;SDS011;32330;51.936;7.184;2022-12-29T04:40:41;0.45;;;0.20;;
46607;SDS011;32330;51.936;7.184;2022-12-29T04:43:10;1.75;;;0.40;;
46607;SDS011;32330;51.936;7.184;2022-12-29T04:45:59;1.33;;;0.30;;
46607;SDS011;32330;51.936;7.184;2022-12-29T04:48:32;0.60;;;0.13;;
46607;SDS011;32330;51.936;7.184;2022-12-29T04:51:19;0.68;;;0.30;;
46607;SDS011;32330;51.936;7.184;2022-12-29T04:53:47;0.90;;;0.40;;
46607;SDS011;32330;51.936;7.184;2022-12-29T04:56:14;0.85;;;0.10;;
46607;SDS011;32330;51.936;7.184;2022-12-29T04:58:42;0.98;;;0.20;;
46607;SDS011;32330;51.936;7.184;2022-12-29T05:01:09;0.45;;;0.20;;
46607;SDS011;32330;51.936;7.184;2022-12-29T05:03:36;2.63;;;0.28;;
46607;SDS011;32330;51.936;7.184;2022-12-29T05:06:04;0.68;;;0.22;;
46607;SDS011;32330;51.936;7.184;2022-12-29T05:08:31;1.85;;;0.30;;
46607;SDS011;32330;51.936;7.184;2022-12-29T05:11:01;0.17;;;0.10;;
46607;SDS011;32330;51.936;7.184;2022-12-29T05:13:28;2.45;;;0.20;;
46607;SDS011;32330;51.936;7.184;2022-12-29T05:15:56;1.85;;;0.20;;
46607;SDS011;32330;51.936;7.184;2022-12-29T05:18:23;3.70;;;0.77;;
46607;SDS011;32330;51.936;7.184;2022-12-29T05:20:50;1.23;;;0.30;;
46607;SDS011;32330;51.936;7.184;2022-12-29T05:23:19;1.23;;;0.40;;
46607;SDS011;32330;51.936;7.184;2022-12-29T05:25:53;1.23;;;0.82;;
46607;SDS011;32330;51.936;7.184;2022-12-29T05:28:29;1.08;;;0.50;;
46607;SDS011;32330;51.936;7.184;2022-12-29T05:31:01;1.10;;;0.28;;
46607;SDS011;32330;51.936;7.184;2022-12-29T05:33:29;3.75;;;0.40;;
46607;SDS011;32330;51.936;7.184;2022-12-29T05:35:56;3.10;;;0.30;;
46607;SDS011;32330;51.936;7.184;2022-12-29T05:38:29;2.30;;;0.47;;
46607;SDS011;32330;51.936;7.184;2022-12-29T05:40:56;2.97;;;0.40;;
46607;SDS011;32330;51.936;7.184;2022-12-29T05:43:44;0.80;;;0.30;;
46607;SDS011;32330;51.936;7.184;2022-12-29T05:46:34;3.42;;;1.13;;
46607;SDS011;32330;51.936;7.184;2022-12-29T05:49:10;4.72;;;0.88;;
46607;SDS011;32330;51.936;7.184;2022-12-29T05:51:55;2.97;;;0.60;;
46607;SDS011;32330;51.936;7.184;2022-12-29T05:54:22;3.97;;;0.68;;
46607;SDS011;32330;51.936;7.184;2022-12-29T05:56:50;1.88;;;0.35;;
46607;SDS011;32330;51.936;7.184;2022-12-29T05:59:18;3.40;;;0.77;;
46607;SDS011;32330;51.936;7.184;2022-12-29T06:01:47;2.50;;;0.75;;
46607;SDS011;32330;51.936;7.184;2022-12-29T06:04:14;4.63;;;0.57;;
46607;SDS011;32330;51.936;7.184;2022-12-29T06:06:42;2.42;;;0.60;;
46607;SDS011;32330;51.936;7.184;2022-12-29T06:09:17;2.58;;;0.60;;
46607;SDS011;32330;51.936;7.184;2022-12-29T06:11:44;3.42;;;0.80;;
46607;SDS011;32330;51.936;7.184;2022-12-29T06:14:11;3.53;;;0.77;;
46607;SDS011;32330;51.936;7.184;2022-12-29T06:16:39;1.58;;;0.32;;
46607;SDS011;32330;51.936;7.184;2022-12-29T06:21:37;3.47;;;0.63;;
46607;SDS011;32330;51.936;7.184;2022-12-29T06:24:04;2.40;;;0.40;;
46607;SDS011;32330;51.936;7.184;2022-12-29T06:26:33;2.33;;;0.50;;
46607;SDS011;32330;51.936;7.184;2022-12-29T06:29:00;2.53;;;0.60;;
46607;SDS011;32330;51.936;7.184;2022-12-29T06:31:28;2.95;;;0.57;;
46607;SDS011;32330;51.936;7.184;2022-12-29T06:33:57;2.58;;;0.90;;
46607;SDS011;32330;51.936;7.184;2022-12-29T06:36:25;2.17;;;0.47;;
46607;SDS011;32330;51.936;7.184;2022-12-29T06:38:52;3.80;;;0.68;;
46607;SDS011;32330;51.936;7.184;2022-12-29T06:41:21;5.28;;;0.80;;
46607;SDS011;32330;51.936;7.184;2022-12-29T06:44:17;3.50;;;0.90;;
46607;SDS011;32330;51.936;7.184;2022-12-29T06:47:00;3.80;;;0.75;;
46607;SDS011;32330;51.936;7.184;2022-12-29T06:49:28;3.63;;;0.70;;
46607;SDS011;32330;51.936;7.184;2022-12-29T06:51:55;4.22;;;0.70;;
46607;SDS011;32330;51.936;7.184;2022-12-29T06:54:23;3.97;;;0.80;;
46607;SDS011;32330;51.936;7.184;2022-12-29T06:56:50;3.72;;;1.05;;
46607;SDS011;32330;51.936;7.184;2022-12-29T06:59:17;4.05;;;0.82;;
46607;SDS011;32330;51.936;7.184;2022-12-29T07:01:44;2.42;;;0.70;;
46607;SDS011;32330;51.936;7.184;2022-12-29T07:04:11;3.85;;;0.88;;
46607;SDS011;32330;51.936;7.184;2022-12-29T07:06:39;7.22;;;1.05;;
46607;SDS011;32330;51.936;7.184;2022-12-29T07:09:06;3.55;;;0.90;;
46607;SDS011;32330;51.936;7.184;2022-12-29T07:11:34;3.65;;;1.00;;
46607;SDS011;32330;51.936;7.184;2022-12-29T07:14:01;4.30;;;1.00;;
46607;SDS011;32330;51.936;7.184;2022-12-29T07:16:28;5.05;;;0.82;;
46607;SDS011;32330;51.936;7.184;2022-12-29T07:18:55;4.55;;;1.00;;
46607;SDS011;32330;51.936;7.184;2022-12-29T07:21:24;2.35;;;0.88;;
46607;SDS011;32330;51.936;7.184;2022-12-29T07:23:52;4.65;;;0.90;;
46607;SDS011;32330;51.936;7.184;2022-12-29T07:26:20;8.55;;;2.28;;
46607;SDS011;32330;51.936;7.184;2022-12-29T07:28:47;3.47;;;0.80;;
46607;SDS011;32330;51.936;7.184;2022-12-29T07:31:14;3.65;;;1.08;;
46607;SDS011;32330;51.936;7.184;2022-12-29T07:33:43;3.15;;;1.30;;
46607;SDS011;32330;51.936;7.184;2022-12-29T07:36:10;6.78;;;1.17;;
46607;SDS011;32330;51.936;7.184;2022-12-29T07:38:37;5.68;;;1.20;;
46607;SDS011;32330;51.936;7.184;2022-12-29T07:41:06;1.70;;;0.70;;
46607;SDS011;32330;51.936;7.184;2022-12-29T07:43:33;5.75;;;1.38;;
46607;SDS011;32330;51.936;7.184;2022-12-29T07:46:21;4.63;;;1.00;;
46607;SDS011;32330;51.936;7.184;2022-12-29T07:48:47;4.93;;;1.10;;
46607;SDS011;32330;51.936;7.184;2022-12-29T07:51:14;4.10;;;0.95;;
46607;SDS011;32330;51.936;7.184;2022-12-29T07:53:41;4.40;;;1.05;;
46607;SDS011;32330;51.936;7.184;2022-12-29T07:56:09;4.80;;;1.20;;
46607;SDS011;32330;51.936;7.184;2022-12-29T07:58:36;4.75;;;0.80;;
46607;SDS011;32330;51.936;7.184;2022-12-29T08:01:03;3.55;;;0.95;;
46607;SDS011;32330;51.936;7.184;2022-12-29T08:03:31;5.35;;;1.67;;
46607;SDS011;32330;51.936;7.184;2022-12-29T08:05:58;5.05;;;1.10;;
46607;SDS011;32330;51.936;7.184;2022-12-29T08:08:24;3.50;;;1.20;;
46607;SDS011;32330;51.936;7.184;2022-12-29T08:10:51;8.45;;;2.45;;
46607;SDS011;32330;51.936;7.184;2022-12-29T08:13:20;4.70;;;1.05;;
46607;SDS011;32330;51.936;7.184;2022-12-29T08:15:47;4.72;;;1.58;;
46607;SDS011;32330;51.936;7.184;2022-12-29T08:18:13;4.40;;;1.08;;
46607;SDS011;32330;51.936;7.184;2022-12-29T08:20:40;7.50;;;4.28;;
46607;SDS011;32330;51.936;7.184;2022-12-29T08:23:07;4.97;;;1.08;;
46607;SDS011;32330;51.936;7.184;2022-12-29T08:25:34;3.10;;;1.20;;
46607;SDS011;32330;51.936;7.184;2022-12-29T08:28:01;4.78;;;0.98;;
46607;SDS011;32330;51.936;7.184;2022-12-29T08:30:29;8.40;;;1.27;;
46607;SDS011;32330;51.936;7.184;2022-12-29T08:32:56;5.55;;;0.90;;
46607;SDS011;32330;51.936;7.184;2022-12-29T08:35:23;5.57;;;0.90;;
46607;SDS011;32330;51.936;7.184;2022-12-29T08:37:50;3.47;;;0.85;;
46607;SDS011;32330;51.936;7.184;2022-12-29T08:40:17;4.00;;;1.20;;
46607;SDS011;32330;51.936;7.184;2022-12-29T08:42:44;4.13;;;1.10;;
46607;SDS011;32330;51.936;7.184;2022-12-29T08:45:11;4.38;;;1.52;;
46607;SDS011;32330;51.936;7.184;2022-12-29T08:47:39;4.50;;;0.82;;
46607;SDS011;32330;51.936;7.184;2022-12-29T08:50:07;5.55;;;1.10;;
46607;SDS011;32330;51.936;7.184;2022-12-29T08:52:33;6.97;;;1.60;;
46607;SDS011;32330;51.936;7.184;2022-12-29T08:55:00;3.90;;;1.50;;
46607;SDS011;32330;51.936;7.184;2022-12-29T08:57:29;4.88;;;1.13;;
46607;SDS011;32330;51.936;7.184;2022-12-29T09:00:04;9.55;;;1.80;;
46607;SDS011;32330;51.936;7.184;2022-12-29T09:02:31;8.55;;;1.20;;
46607;SDS011;32330;51.936;7.184;2022-12-29T09:05:00;3.97;;;1.00;;
46607;SDS011;32330;51.936;7.184;2022-12-29T09:07:28;6.63;;;1.67;;
46607;SDS011;32330;51.936;7.184;2022-12-29T09:09:55;6.28;;;1.50;;
46607;SDS011;32330;51.936;7.184;2022-12-29T09:12:22;6.07;;;1.80;;
46607;SDS011;32330;51.936;7.184;2022-12-29T09:14:49;9.68;;;1.35;;
46607;SDS011;32330;51.936;7.184;2022-12-29T09:17:16;5.53;;;1.23;;
46607;SDS011;32330;51.936;7.184;2022-12-29T09:20:01;8.07;;;2.08;;
46607;SDS011;32330;51.936;7.184;2022-12-29T09:22:29;4.85;;;1.02;;
46607;SDS011;32330;51.936;7.184;2022-12-29T09:25:29;5.68;;;1.73;;
46607;SDS011;32330;51.936;7.184;2022-12-29T09:27:56;6.85;;;1.13;;
46607;SDS011;32330;51.936;7.184;2022-12-29T09:30:23;4.18;;;0.90;;
46607;SDS011;32330;51.936;7.184;2022-12-29T09:32:50;6.85;;;1.38;;
46607;SDS011;32330;51.936;7.184;2022-12-29T09:35:18;5.85;;;1.15;;
46607;SDS011;32330;51.936;7.184;2022-12-29T09:37:45;5.22;;;1.40;;
46607;SDS011;32330;51.936;7.184;2022-12-29T09:40:18;4.20;;;1.35;;
46607;SDS011;32330;51.936;7.184;2022-12-29T09:43:01;7.30;;;1.52;;
46607;SDS011;32330;51.936;7.184;2022-12-29T09:45:40;7.47;;;1.95;;
46607;SDS011;32330;51.936;7.184;2022-12-29T09:50:42;12.95;;;1.60;;
46607;SDS011;32330;51.936;7.184;2022-12-29T09:53:14;7.55;;;1.40;;
46607;SDS011;32330;51.936;7.184;2022-12-29T09:55:47;6.00;;;1.30;;
46607;SDS011;32330;51.936;7.184;2022-12-29T09:58:17;6.15;;;1.20;;
46607;SDS011;32330;51.936;7.184;2022-12-29T10:00:50;7.57;;;2.35;;
46607;SDS011;32330;51.936;7.184;2022-12-29T10:03:24;5.10;;;1.10;;
46607;SDS011;32330;51.936;7.184;2022-12-29T10:06:02;7.88;;;1.90;;
46607;SDS011;32330;51.936;7.184;2022-12-29T10:08:37;5.80;;;1.88;;
46607;SDS011;32330;51.936;7.184;2022-12-29T10:11:11;7.30;;;1.10;;
46607;SDS011;32330;51.936;7.184;2022-12-29T10:13:50;7.32;;;1.20;;
46607;SDS011;32330;51.936;7.184;2022-12-29T10:16:31;5.90;;;1.40;;
46607;SDS011;32330;51.936;7.184;2022-12-29T10:19:11;8.82;;;2.25;;
46607;SDS011;32330;51.936;7.184;2022-12-29T10:21:56;3.92;;;1.00;;
46607;SDS011;32330;51.936;7.184;2022-12-29T10:24:33;7.72;;;1.65;;
46607;SDS011;32330;51.936;7.184;2022-12-29T10:27:03;6.63;;;1.38;;
46607;SDS011;32330;51.936;7.184;2022-12-29T10:29:38;7.82;;;1.45;;
46607;SDS011;32330;51.936;7.184;2022-12-29T10:32:15;4.22;;;1.00;;
46607;SDS011;32330;51.936;7.184;2022-12-29T10:34:51;7.88;;;2.30;;
46607;SDS011;32330;51.936;7.184;2022-12-29T10:37:24;7.38;;;1.73;;
46607;SDS011;32330;51.936;7.184;2022-12-29T10:39:58;9.18;;;1.48;;
46607;SDS011;32330;51.936;7.184;2022-12-29T10:42:28;5.63;;;1.38;;
46607;SDS011;32330;51.936;7.184;2022-12-29T10:45:02;5.40;;;0.95;;
46607;SDS011;32330;51.936;7.184;2022-12-29T10:47:31;4.68;;;1.30;;
46607;SDS011;32330;51.936;7.184;2022-12-29T10:50:04;5.30;;;1.20;;
46607;SDS011;32330;51.936;7.184;2022-12-29T10:52:34;5.95;;;1.75;;
46607;SDS011;32330;51.936;7.184;2022-12-29T10:55:04;4.13;;;1.20;;
46607;SDS011;32330;51.936;7.184;2022-12-29T10:57:39;6.68;;;1.13;;
46607;SDS011;32330;51.936;7.184;2022-12-29T11:00:11;4.65;;;1.38;;
46607;SDS011;32330;51.936;7.184;2022-12-29T11:02:47;5.57;;;1.15;;
46607;SDS011;32330;51.936;7.184;2022-12-29T11:05:36;4.95;;;1.23;;
46607;SDS011;32330;51.936;7.184;2022-12-29T11:08:10;6.45;;;1.50;;
46607;SDS011;32330;51.936;7.184;2022-12-29T11:10:41;8.15;;;1.42;;
46607;SDS011;32330;51.936;7.184;2022-12-29T11:13:13;5.93;;;1.40;;
46607;SDS011;32330;51.936;7.184;2022-12-29T11:15:42;7.68;;;2.45;;
46607;SDS011;32330;51.936;7.184;2022-12-29T11:18:20;7.10;;;1.63;;
46607;SDS011;32330;51.936;7.184;2022-12-29T11:20:49;7.63;;;1.45;;
46607;SDS011;32330;51.936;7.184;2022-12-29T11:23:23;5.82;;;1.73;;
46607;SDS011;32330;51.936;7.184;2022-12-29T11:29:04;6.95;;;1.33;;
46607;SDS011;32330;51.936;7.184;2022-12-29T11:31:43;7.63;;;1.48;;
46607;SDS011;32330;51.936;7.184;2022-12-29T11:34:16;6.43;;;1.30;;
46607;SDS011;32330;51.936;7.184;2022-12-29T11:36:44;4.80;;;1.30;;
46607;SDS011;32330;51.936;7.184;2022-12-29T11:39:22;5.20;;;1.25;;
46607;SDS011;32330;51.936;7.184;2022-12-29T11:42:03;8.18;;;1.95;;
46607;SDS011;32330;51.936;7.184;2022-12-29T11:44:36;4.35;;;1.77;;
46607;SDS011;32330;51.936;7.184;2022-12-29T11:47:08;6.53;;;1.95;;
46607;SDS011;32330;51.936;7.184;2022-12-29T11:49:38;6.40;;;1.03;;
46607;SDS011;32330;51.936;7.184;2022-12-29T11:52:06;5.88;;;1.48;;
46607;SDS011;32330;51.936;7.184;2022-12-29T11:54:36;4.18;;;1.35;;
46607;SDS011;32330;51.936;7.184;2022-12-29T11:57:08;3.50;;;1.52;;
46607;SDS011;32330;51.936;7.184;2022-12-29T11:59:41;3.90;;;1.17;;
46607;SDS011;32330;51.936;7.184;2022-12-29T12:02:17;5.70;;;1.08;;
46607;SDS011;32330;51.936;7.184;2022-12-29T12:04:54;5.85;;;1.70;;
46607;SDS011;32330;51.936;7.184;2022-12-29T12:07:29;8.23;;;1.40;;
46607;SDS011;32330;51.936;7.184;2022-12-29T12:10:06;6.55;;;1.25;;
46607;SDS011;32330;51.936;7.184;2022-12-29T12:12:44;3.90;;;0.93;;
46607;SDS011;32330;51.936;7.184;2022-12-29T12:15:17;6.05;;;1.58;;
46607;SDS011;32330;51.936;7.184;2022-12-29T12:17:53;8.82;;;1.50;;
46607;SDS011;32330;51.936;7.184;2022-12-29T12:20:26;2.72;;;0.68;;
46607;SDS011;32330;51.936;7.184;2022-12-29T12:23:02;5.57;;;1.35;;
46607;SDS011;32330;51.936;7.184;2022-12-29T12:25:43;7.38;;;1.70;;
46607;SDS011;32330;51.936;7.184;2022-12-29T12:28:18;4.85;;;1.75;;
46607;SDS011;32330;51.936;7.184;2022-12-29T12:30:53;7.65;;;2.35;;
46607;SDS011;32330;51.936;7.184;2022-12-29T12:33:24;6.97;;;2.10;;
46607;SDS011;32330;51.936;7.184;2022-12-29T12:36:00;8.90;;;3.08;;
46607;SDS011;32330;51.936;7.184;2022-12-29T12:38:42;6.05;;;1.92;;
46607;SDS011;32330;51.936;7.184;2022-12-29T12:41:16;4.72;;;1.10;;
46607;SDS011;32330;51.936;7.184;2022-12-29T12:43:51;4.95;;;1.13;;
46607;SDS011;32330;51.936;7.184;2022-12-29T12:46:30;9.07;;;1.95;;
46607;SDS011;32330;51.936;7.184;2022-12-29T12:49:12;8.27;;;2.03;;
46607;SDS011;32330;51.936;7.184;2022-12-29T12:51:52;10.27;;;2.05;;
46607;SDS011;32330;51.936;7.184;2022-12-29T12:54:31;5.65;;;1.40;;
46607;SDS011;32330;51.936;7.184;2022-12-29T12:57:17;6.20;;;1.38;;
46607;SDS011;32330;51.936;7.184;2022-12-29T12:59:52;7.47;;;1.65;;
46607;SDS011;32330;51.936;7.184;2022-12-29T13:02:29;6.28;;;1.63;;
46607;SDS011;32330;51.936;7.184;2022-12-29T13:10:52;6.78;;;1.42;;
46607;SDS011;32330;51.936;7.184;2022-12-29T13:13:32;4.30;;;1.40;;
46607;SDS011;32330;51.936;7.184;2022-12-29T13:16:22;7.70;;;1.63;;
46607;SDS011;32330;51.936;7.184;2022-12-29T13:18:57;3.45;;;1.13;;
46607;SDS011;32330;51.936;7.184;2022-12-29T13:21:30;5.80;;;1.38;;
46607;SDS011;32330;51.936;7.184;2022-12-29T13:24:06;4.25;;;1.20;;
46607;SDS011;32330;51.936;7.184;2022-12-29T13:26:42;8.23;;;1.50;;
46607;SDS011;32330;51.936;7.184;2022-12-29T13:32:15;6.10;;;1.20;;
46607;SDS011;32330;51.936;7.184;2022-12-29T13:34:53;7.43;;;1.50;;
46607;SDS011;32330;51.936;7.184;2022-12-29T13:37:29;5.78;;;1.60;;
46607;SDS011;32330;51.936;7.184;2022-12-29T13:40:01;14.38;;;5.05;;
46607;SDS011;32330;51.936;7.184;2022-12-29T13:42:36;8.20;;;2.40;;
46607;SDS011;32330;51.936;7.184;2022-12-29T13:45:06;6.10;;;1.70;;
46607;SDS011;32330;51.936;7.184;2022-12-29T13:47:37;8.02;;;2.63;;
46607;SDS011;32330;51.936;7.184;2022-12-29T13:50:11;5.88;;;1.55;;
46607;SDS011;32330;51.936;7.184;2022-12-29T13:52:42;7.95;;;2.35;;
46607;SDS011;32330;51.936;7.184;2022-12-29T13:55:19;7.57;;;2.08;;
46607;SDS011;32330;51.936;7.184;2022-12-29T13:57:52;9.32;;;1.55;;
46607;SDS011;32330;51.936;7.184;2022-12-29T14:00:28;7.28;;;1.80;;
46607;SDS011;32330;51.936;7.184;2022-12-29T14:03:04;6.68;;;1.42;;
46607;SDS011;32330;51.936;7.184;2022-12-29T14:06:03;7.47;;;1.80;;
46607;SDS011;32330;51.936;7.184;2022-12-29T14:08:38;7.70;;;1.90;;
46607;SDS011;32330;51.936;7.184;2022-12-29T14:11:07;6.80;;;1.45;;
46607;SDS011;32330;51.936;7.184;2022-12-29T14:13:37;5.78;;;1.73;;
46607;SDS011;32330;51.936;7.184;2022-12-29T14:16:07;6.95;;;1.63;;
46607;SDS011;32330;51.936;7.184;2022-12-29T14:18:47;6.15;;;1.73;;
46607;SDS011;32330;51.936;7.184;2022-12-29T14:21:17;8.50;;;2.10;;
46607;SDS011;32330;51.936;7.184;2022-12-29T14:23:48;11.00;;;2.03;;
46607;SDS011;32330;51.936;7.184;2022-12-29T14:26:32;8.55;;;2.20;;
46607;SDS011;32330;51.936;7.184;2022-12-29T14:31:59;8.75;;;1.83;;
46607;SDS011;32330;51.936;7.184;2022-12-29T14:34:27;8.05;;;2.15;;
46607;SDS011;32330;51.936;7.184;2022-12-29T14:36:56;7.57;;;2.40;;
46607;SDS011;32330;51.936;7.184;2022-12-29T14:39:28;9.88;;;2.20;;
46607;SDS011;32330;51.936;7.184;2022-12-29T14:42:01;8.55;;;2.40;;
46607;SDS011;32330;51.936;7.184;2022-12-29T14:44:31;7.05;;;2.22;;
46607;SDS011;32330;51.936;7.184;2022-12-29T14:47:00;7.32;;;2.13;;
46607;SDS011;32330;51.936;7.184;2022-12-29T14:49:33;7.78;;;2.00;;
46607;SDS011;32330;51.936;7.184;2022-12-29T14:52:08;6.05;;;1.95;;
46607;SDS011;32330;51.936;7.184;2022-12-29T14:54:43;7.20;;;2.10;;
46607;SDS011;32330;51.936;7.184;2022-12-29T14:57:22;6.85;;;2.03;;
46607;SDS011;32330;51.936;7.184;2022-12-29T14:59:53;7.70;;;1.67;;
46607;SDS011;32330;51.936;7.184;2022-12-29T15:02:25;7.80;;;1.75;;
46607;SDS011;32330;51.936;7.184;2022-12-29T15:05:03;8.45;;;1.92;;
46607;SDS011;32330;51.936;7.184;2022-12-29T15:07:32;6.03;;;1.75;;
46607;SDS011;32330;51.936;7.184;2022-12-29T15:10:03;10.57;;;2.97;;
46607;SDS011;32330;51.936;7.184;2022-12-29T15:12:35;7.68;;;2.15;;
46607;SDS011;32330;51.936;7.184;2022-12-29T15:15:17;7.82;;;1.95;;
46607;SDS011;32330;51.936;7.184;2022-12-29T15:17:47;10.00;;;1.77;;
46607;SDS011;32330;51.936;7.184;2022-12-29T15:20:16;7.85;;;2.17;;
46607;SDS011;32330;51.936;7.184;2022-12-29T15:22:49;10.57;;;1.58;;
46607;SDS011;32330;51.936;7.184;2022-12-29T15:25:19;5.28;;;1.40;;
46607;SDS011;32330;51.936;7.184;2022-12-29T15:27:48;5.50;;;1.40;;
46607;SDS011;32330;51.936;7.184;2022-12-29T15:30:16;5.55;;;1.52;;
46607;SDS011;32330;51.936;7.184;2022-12-29T15:32:43;5.78;;;1.42;;
46607;SDS011;32330;51.936;7.184;2022-12-29T15:35:28;6.70;;;1.50;;
46607;SDS011;32330;51.936;7.184;2022-12-29T15:37:57;5.53;;;1.15;;
46607;SDS011;32330;51.936;7.184;2022-12-29T15:40:26;6.45;;;1.67;;
46607;SDS011;32330;51.936;7.184;2022-12-29T15:43:05;6.78;;;1.60;;
46607;SDS011;32330;51.936;7.184;2022-12-29T15:45:44;5.43;;;1.60;;
46607;SDS011;32330;51.936;7.184;2022-12-29T15:48:13;6.28;;;1.38;;